sensor_id;sensor_type;location;lat;lon;timestamp;P1;durP1;ratioP1;P2;durP2;ratioP2
35743;SDS011;21867;52.012;4.324;2023-02-21T00:02:04;25.37;;;14.70;;
35743;SDS011;21867;52.012;4.324;2023-02-21T00:07:22;16.73;;;10.73;;
35743;SDS011;21867;52.012;4.324;2023-02-21T00:09:50;18.00;;;13.50;;
35743;SDS011;21867;52.012;4.324;2023-02-21T00:12:17;22.00;;;13.30;;
35743;SDS011;21867;52.012;4.324;2023-02-21T00:14:44;22.80;;;10.73;;
35743;SDS011;21867;52.012;4.324;2023-02-21T00:17:12;22.07;;;14.33;;
35743;SDS011;21867;52.012;4.324;2023-02-21T00:19:54;24.57;;;14.97;;
35743;SDS011;21867;52.012;4.324;2023-02-21T00:26:01;25.87;;;15.63;;
35743;SDS011;21867;52.012;4.324;2023-02-21T00:28:30;20.90;;;15.27;;
35743;SDS011;21867;52.012;4.324;2023-02-21T00:30:57;29.57;;;17.93;;
35743;SDS011;21867;52.012;4.324;2023-02-21T00:33:25;26.87;;;16.20;;
35743;SDS011;21867;52.012;4.324;2023-02-21T00:35:58;25.00;;;15.53;;
35743;SDS011;21867;52.012;4.324;2023-02-21T00:38:26;24.83;;;16.43;;
35743;SDS011;21867;52.012;4.324;2023-02-21T00:40:53;26.40;;;14.57;;
35743;SDS011;21867;52.012;4.324;2023-02-21T00:43:27;31.67;;;18.13;;
35743;SDS011;21867;52.012;4.324;2023-02-21T00:45:55;21.87;;;13.50;;
35743;SDS011;21867;52.012;4.324;2023-02-21T00:48:22;20.77;;;15.17;;
35743;SDS011;21867;52.012;4.324;2023-02-21T00:50:49;28.27;;;19.17;;
35743;SDS011;21867;52.012;4.324;2023-02-21T00:53:17;28.57;;;16.27;;
35743;SDS011;21867;52.012;4.324;2023-02-21T00:55:44;30.03;;;17.53;;
35743;SDS011;21867;52.012;4.324;2023-02-21T00:58:12;30.00;;;18.07;;
35743;SDS011;21867;52.012;4.324;2023-02-21T01:04:31;30.03;;;16.10;;
35743;SDS011;21867;52.012;4.324;2023-02-21T01:06:59;24.43;;;14.60;;
35743;SDS011;21867;52.012;4.324;2023-02-21T01:09:26;29.03;;;16.40;;
35743;SDS011;21867;52.012;4.324;2023-02-21T01:11:53;32.30;;;15.90;;
35743;SDS011;21867;52.012;4.324;2023-02-21T01:14:21;33.83;;;20.07;;
35743;SDS011;21867;52.012;4.324;2023-02-21T01:16:48;30.97;;;18.10;;
35743;SDS011;21867;52.012;4.324;2023-02-21T01:19:28;34.67;;;19.87;;
35743;SDS011;21867;52.012;4.324;2023-02-21T01:21:56;22.63;;;13.90;;
35743;SDS011;21867;52.012;4.324;2023-02-21T01:24:24;25.03;;;14.97;;
35743;SDS011;21867;52.012;4.324;2023-02-21T01:26:52;35.60;;;18.30;;
35743;SDS011;21867;52.012;4.324;2023-02-21T01:29:29;33.17;;;18.43;;
35743;SDS011;21867;52.012;4.324;2023-02-21T01:37:46;31.47;;;18.13;;
35743;SDS011;21867;52.012;4.324;2023-02-21T01:40:15;36.93;;;16.47;;
35743;SDS011;21867;52.012;4.324;2023-02-21T01:42:42;39.97;;;18.40;;
35743;SDS011;21867;52.012;4.324;2023-02-21T01:48:01;31.63;;;16.70;;
35743;SDS011;21867;52.012;4.324;2023-02-21T01:50:29;33.13;;;17.33;;
35743;SDS011;21867;52.012;4.324;2023-02-21T01:52:59;31.63;;;17.57;;
35743;SDS011;21867;52.012;4.324;2023-02-21T01:55:28;38.83;;;18.10;;
35743;SDS011;21867;52.012;4.324;2023-02-21T01:57:55;31.67;;;19.90;;
35743;SDS011;21867;52.012;4.324;2023-02-21T02:00:33;28.30;;;16.97;;
35743;SDS011;21867;52.012;4.324;2023-02-21T02:05:57;38.33;;;18.47;;
35743;SDS011;21867;52.012;4.324;2023-02-21T02:08:28;28.30;;;18.10;;
35743;SDS011;21867;52.012;4.324;2023-02-21T02:10:59;36.53;;;18.83;;
35743;SDS011;21867;52.012;4.324;2023-02-21T02:13:34;29.63;;;17.17;;
35743;SDS011;21867;52.012;4.324;2023-02-21T02:16:10;29.00;;;18.63;;
35743;SDS011;21867;52.012;4.324;2023-02-21T02:21:36;35.03;;;20.93;;
35743;SDS011;21867;52.012;4.324;2023-02-21T02:24:10;28.10;;;18.60;;
35743;SDS011;21867;52.012;4.324;2023-02-21T02:27:06;22.93;;;16.93;;
35743;SDS011;21867;52.012;4.324;2023-02-21T02:29:45;26.13;;;17.97;;
35743;SDS011;21867;52.012;4.324;2023-02-21T02:32:25;35.03;;;22.60;;
35743;SDS011;21867;52.012;4.324;2023-02-21T02:41:20;35.13;;;22.53;;
35743;SDS011;21867;52.012;4.324;2023-02-21T02:43:51;35.60;;;24.97;;
35743;SDS011;21867;52.012;4.324;2023-02-21T02:46:20;33.93;;;22.93;;
35743;SDS011;21867;52.012;4.324;2023-02-21T02:48:49;36.60;;;23.37;;
35743;SDS011;21867;52.012;4.324;2023-02-21T02:51:19;38.67;;;23.80;;
35743;SDS011;21867;52.012;4.324;2023-02-21T02:56:47;44.47;;;24.27;;
35743;SDS011;21867;52.012;4.324;2023-02-21T02:59:15;40.40;;;23.60;;
35743;SDS011;21867;52.012;4.324;2023-02-21T03:01:48;35.70;;;21.20;;
35743;SDS011;21867;52.012;4.324;2023-02-21T03:04:33;34.57;;;21.77;;
35743;SDS011;21867;52.012;4.324;2023-02-21T03:07:06;25.37;;;17.67;;
35743;SDS011;21867;52.012;4.324;2023-02-21T03:15:59;32.03;;;19.17;;
35743;SDS011;21867;52.012;4.324;2023-02-21T03:18:29;26.97;;;15.73;;
35743;SDS011;21867;52.012;4.324;2023-02-21T03:20:59;31.80;;;21.17;;
35743;SDS011;21867;52.012;4.324;2023-02-21T03:23:28;36.93;;;22.57;;
35743;SDS011;21867;52.012;4.324;2023-02-21T03:25:56;31.73;;;20.23;;
35743;SDS011;21867;52.012;4.324;2023-02-21T03:31:08;31.33;;;19.83;;
35743;SDS011;21867;52.012;4.324;2023-02-21T03:33:37;31.17;;;22.20;;
35743;SDS011;21867;52.012;4.324;2023-02-21T03:36:07;27.43;;;20.03;;
35743;SDS011;21867;52.012;4.324;2023-02-21T03:45:47;38.03;;;23.57;;
35743;SDS011;21867;52.012;4.324;2023-02-21T03:48:18;27.30;;;20.83;;
35743;SDS011;21867;52.012;4.324;2023-02-21T03:51:01;37.40;;;23.33;;
35743;SDS011;21867;52.012;4.324;2023-02-21T03:53:34;24.43;;;18.07;;
35743;SDS011;21867;52.012;4.324;2023-02-21T03:56:02;30.60;;;22.60;;
35743;SDS011;21867;52.012;4.324;2023-02-21T04:01:13;43.00;;;22.63;;
35743;SDS011;21867;52.012;4.324;2023-02-21T04:03:43;32.43;;;21.97;;
35743;SDS011;21867;52.012;4.324;2023-02-21T04:06:11;28.00;;;17.73;;
35743;SDS011;21867;52.012;4.324;2023-02-21T04:08:39;36.73;;;23.90;;
35743;SDS011;21867;52.012;4.324;2023-02-21T04:11:06;33.77;;;23.60;;
35743;SDS011;21867;52.012;4.324;2023-02-21T04:20:03;33.40;;;21.93;;
35743;SDS011;21867;52.012;4.324;2023-02-21T04:22:35;30.60;;;19.83;;
35743;SDS011;21867;52.012;4.324;2023-02-21T04:25:02;36.57;;;22.53;;
35743;SDS011;21867;52.012;4.324;2023-02-21T04:27:36;37.23;;;22.93;;
35743;SDS011;21867;52.012;4.324;2023-02-21T04:30:04;34.00;;;21.27;;
35743;SDS011;21867;52.012;4.324;2023-02-21T04:35:23;34.57;;;23.50;;
35743;SDS011;21867;52.012;4.324;2023-02-21T04:37:52;20.90;;;16.50;;
35743;SDS011;21867;52.012;4.324;2023-02-21T04:40:20;33.07;;;24.97;;
35743;SDS011;21867;52.012;4.324;2023-02-21T04:49:59;38.27;;;23.13;;
35743;SDS011;21867;52.012;4.324;2023-02-21T04:52:28;35.73;;;23.53;;
35743;SDS011;21867;52.012;4.324;2023-02-21T04:54:55;32.43;;;22.97;;
35743;SDS011;21867;52.012;4.324;2023-02-21T04:57:22;29.73;;;16.33;;
35743;SDS011;21867;52.012;4.324;2023-02-21T04:59:54;28.00;;;16.77;;
35743;SDS011;21867;52.012;4.324;2023-02-21T05:04:58;32.13;;;22.80;;
35743;SDS011;21867;52.012;4.324;2023-02-21T05:07:25;34.13;;;22.60;;
35743;SDS011;21867;52.012;4.324;2023-02-21T05:09:54;25.47;;;16.33;;
35743;SDS011;21867;52.012;4.324;2023-02-21T05:19:33;30.70;;;22.87;;
35743;SDS011;21867;52.012;4.324;2023-02-21T05:22:01;32.03;;;23.13;;
35743;SDS011;21867;52.012;4.324;2023-02-21T05:24:29;29.07;;;20.60;;
35743;SDS011;21867;52.012;4.324;2023-02-21T05:26:58;31.17;;;22.33;;
35743;SDS011;21867;52.012;4.324;2023-02-21T05:29:26;30.83;;;22.83;;
35743;SDS011;21867;52.012;4.324;2023-02-21T05:34:44;36.23;;;23.43;;
35743;SDS011;21867;52.012;4.324;2023-02-21T05:37:11;29.53;;;20.33;;
35743;SDS011;21867;52.012;4.324;2023-02-21T05:39:38;28.63;;;22.23;;
35743;SDS011;21867;52.012;4.324;2023-02-21T05:42:22;33.93;;;22.67;;
35743;SDS011;21867;52.012;4.324;2023-02-21T05:51:26;29.77;;;21.10;;
35743;SDS011;21867;52.012;4.324;2023-02-21T05:53:53;32.20;;;22.80;;
35743;SDS011;21867;52.012;4.324;2023-02-21T05:56:21;34.67;;;23.73;;
35743;SDS011;21867;52.012;4.324;2023-02-21T05:58:50;34.77;;;19.33;;
35743;SDS011;21867;52.012;4.324;2023-02-21T06:04:22;34.40;;;22.47;;
35743;SDS011;21867;52.012;4.324;2023-02-21T06:06:49;34.87;;;23.87;;
35743;SDS011;21867;52.012;4.324;2023-02-21T06:09:17;32.83;;;23.83;;
35743;SDS011;21867;52.012;4.324;2023-02-21T06:18:12;24.90;;;17.70;;
35743;SDS011;21867;52.012;4.324;2023-02-21T06:20:40;34.73;;;23.20;;
35743;SDS011;21867;52.012;4.324;2023-02-21T06:23:07;31.23;;;24.83;;
35743;SDS011;21867;52.012;4.324;2023-02-21T06:25:34;38.73;;;23.80;;
35743;SDS011;21867;52.012;4.324;2023-02-21T06:28:02;22.27;;;17.37;;
35743;SDS011;21867;52.012;4.324;2023-02-21T06:30:29;32.33;;;24.13;;
35743;SDS011;21867;52.012;4.324;2023-02-21T06:32:57;28.03;;;22.33;;
35743;SDS011;21867;52.012;4.324;2023-02-21T06:35:25;30.57;;;23.23;;
35743;SDS011;21867;52.012;4.324;2023-02-21T06:37:53;25.37;;;22.03;;
35743;SDS011;21867;52.012;4.324;2023-02-21T06:40:20;33.03;;;24.93;;
35743;SDS011;21867;52.012;4.324;2023-02-21T06:42:48;33.97;;;21.43;;
35743;SDS011;21867;52.012;4.324;2023-02-21T06:45:15;31.53;;;23.30;;
35743;SDS011;21867;52.012;4.324;2023-02-21T06:47:42;26.13;;;19.93;;
35743;SDS011;21867;52.012;4.324;2023-02-21T06:50:09;28.87;;;21.63;;
35743;SDS011;21867;52.012;4.324;2023-02-21T06:52:38;31.50;;;22.67;;
35743;SDS011;21867;52.012;4.324;2023-02-21T06:55:06;32.23;;;22.03;;
35743;SDS011;21867;52.012;4.324;2023-02-21T06:57:33;29.73;;;22.93;;
35743;SDS011;21867;52.012;4.324;2023-02-21T07:00:01;37.53;;;24.43;;
35743;SDS011;21867;52.012;4.324;2023-02-21T07:02:28;30.57;;;24.03;;
35743;SDS011;21867;52.012;4.324;2023-02-21T07:04:55;25.97;;;19.43;;
35743;SDS011;21867;52.012;4.324;2023-02-21T07:07:23;29.60;;;19.20;;
35743;SDS011;21867;52.012;4.324;2023-02-21T07:09:52;31.97;;;23.60;;
35743;SDS011;21867;52.012;4.324;2023-02-21T07:12:19;29.50;;;23.77;;
35743;SDS011;21867;52.012;4.324;2023-02-21T07:14:47;28.30;;;19.93;;
35743;SDS011;21867;52.012;4.324;2023-02-21T07:17:14;34.60;;;19.23;;
35743;SDS011;21867;52.012;4.324;2023-02-21T07:19:41;29.30;;;21.07;;
35743;SDS011;21867;52.012;4.324;2023-02-21T07:22:09;26.90;;;18.03;;
35743;SDS011;21867;52.012;4.324;2023-02-21T07:24:36;31.17;;;23.30;;
35743;SDS011;21867;52.012;4.324;2023-02-21T07:27:05;27.07;;;23.27;;
35743;SDS011;21867;52.012;4.324;2023-02-21T07:29:32;31.93;;;24.70;;
35743;SDS011;21867;52.012;4.324;2023-02-21T07:31:59;31.27;;;24.43;;
35743;SDS011;21867;52.012;4.324;2023-02-21T07:34:26;34.87;;;25.43;;
35743;SDS011;21867;52.012;4.324;2023-02-21T07:36:54;36.47;;;25.47;;
35743;SDS011;21867;52.012;4.324;2023-02-21T07:39:21;30.20;;;24.37;;
35743;SDS011;21867;52.012;4.324;2023-02-21T07:41:48;28.47;;;23.67;;
35743;SDS011;21867;52.012;4.324;2023-02-21T07:44:23;35.67;;;23.77;;
35743;SDS011;21867;52.012;4.324;2023-02-21T07:46:50;32.87;;;25.67;;
35743;SDS011;21867;52.012;4.324;2023-02-21T07:49:18;46.63;;;25.10;;
35743;SDS011;21867;52.012;4.324;2023-02-21T07:51:45;31.10;;;25.20;;
35743;SDS011;21867;52.012;4.324;2023-02-21T07:54:12;40.27;;;24.67;;
35743;SDS011;21867;52.012;4.324;2023-02-21T07:56:41;32.73;;;23.67;;
35743;SDS011;21867;52.012;4.324;2023-02-21T07:59:08;34.93;;;23.80;;
35743;SDS011;21867;52.012;4.324;2023-02-21T08:07:09;30.70;;;22.83;;
35743;SDS011;21867;52.012;4.324;2023-02-21T08:09:37;31.10;;;24.77;;
35743;SDS011;21867;52.012;4.324;2023-02-21T08:12:04;33.77;;;24.13;;
35743;SDS011;21867;52.012;4.324;2023-02-21T08:14:32;36.07;;;23.20;;
35743;SDS011;21867;52.012;4.324;2023-02-21T08:23:41;39.33;;;24.47;;
35743;SDS011;21867;52.012;4.324;2023-02-21T08:26:08;30.07;;;23.23;;
35743;SDS011;21867;52.012;4.324;2023-02-21T08:28:36;30.63;;;23.10;;
35743;SDS011;21867;52.012;4.324;2023-02-21T08:31:03;28.80;;;23.30;;
35743;SDS011;21867;52.012;4.324;2023-02-21T08:33:30;34.53;;;26.83;;
35743;SDS011;21867;52.012;4.324;2023-02-21T08:38:48;28.17;;;18.63;;
35743;SDS011;21867;52.012;4.324;2023-02-21T08:41:16;38.07;;;28.80;;
35743;SDS011;21867;52.012;4.324;2023-02-21T08:43:43;36.67;;;25.90;;
35743;SDS011;21867;52.012;4.324;2023-02-21T08:46:13;33.70;;;24.33;;
35743;SDS011;21867;52.012;4.324;2023-02-21T08:48:41;41.30;;;27.03;;
35743;SDS011;21867;52.012;4.324;2023-02-21T08:57:34;55.67;;;30.50;;
35743;SDS011;21867;52.012;4.324;2023-02-21T09:00:02;37.03;;;26.67;;
35743;SDS011;21867;52.012;4.324;2023-02-21T09:02:29;43.20;;;28.97;;
35743;SDS011;21867;52.012;4.324;2023-02-21T09:04:57;39.70;;;27.87;;
35743;SDS011;21867;52.012;4.324;2023-02-21T09:07:25;30.47;;;23.47;;
35743;SDS011;21867;52.012;4.324;2023-02-21T09:12:50;27.13;;;20.40;;
35743;SDS011;21867;52.012;4.324;2023-02-21T09:15:18;37.20;;;27.10;;
35743;SDS011;21867;52.012;4.324;2023-02-21T09:17:45;45.33;;;26.93;;
35743;SDS011;21867;52.012;4.324;2023-02-21T09:20:14;43.73;;;27.97;;
35743;SDS011;21867;52.012;4.324;2023-02-21T09:22:43;49.53;;;28.87;;
35743;SDS011;21867;52.012;4.324;2023-02-21T09:25:10;35.27;;;24.03;;
35743;SDS011;21867;52.012;4.324;2023-02-21T09:31:32;37.90;;;28.07;;
35743;SDS011;21867;52.012;4.324;2023-02-21T09:33:59;39.63;;;26.80;;
35743;SDS011;21867;52.012;4.324;2023-02-21T09:36:26;38.07;;;27.40;;
35743;SDS011;21867;52.012;4.324;2023-02-21T09:38:54;39.90;;;29.53;;
35743;SDS011;21867;52.012;4.324;2023-02-21T09:41:24;39.73;;;28.27;;
35743;SDS011;21867;52.012;4.324;2023-02-21T09:43:52;34.87;;;24.00;;
35743;SDS011;21867;52.012;4.324;2023-02-21T09:46:21;51.63;;;30.07;;
35743;SDS011;21867;52.012;4.324;2023-02-21T09:48:52;50.80;;;29.73;;
35743;SDS011;21867;52.012;4.324;2023-02-21T09:51:20;54.40;;;29.77;;
35743;SDS011;21867;52.012;4.324;2023-02-21T09:53:47;46.30;;;30.60;;
35743;SDS011;21867;52.012;4.324;2023-02-21T10:03:03;52.23;;;29.00;;
35743;SDS011;21867;52.012;4.324;2023-02-21T10:05:36;54.37;;;32.27;;
35743;SDS011;21867;52.012;4.324;2023-02-21T10:08:07;58.50;;;33.17;;
35743;SDS011;21867;52.012;4.324;2023-02-21T10:10:37;52.67;;;30.40;;
35743;SDS011;21867;52.012;4.324;2023-02-21T10:13:09;61.57;;;32.73;;
35743;SDS011;21867;52.012;4.324;2023-02-21T10:15:42;63.43;;;34.47;;
35743;SDS011;21867;52.012;4.324;2023-02-21T10:18:18;52.57;;;29.53;;
35743;SDS011;21867;52.012;4.324;2023-02-21T10:20:48;61.63;;;35.17;;
35743;SDS011;21867;52.012;4.324;2023-02-21T10:23:17;48.77;;;29.60;;
35743;SDS011;21867;52.012;4.324;2023-02-21T10:25:47;61.87;;;31.07;;
35743;SDS011;21867;52.012;4.324;2023-02-21T10:28:16;55.80;;;31.53;;
35743;SDS011;21867;52.012;4.324;2023-02-21T10:34:37;44.23;;;27.67;;
35743;SDS011;21867;52.012;4.324;2023-02-21T10:37:10;40.70;;;25.97;;
35743;SDS011;21867;52.012;4.324;2023-02-21T10:39:43;50.13;;;30.00;;
35743;SDS011;21867;52.012;4.324;2023-02-21T10:42:25;39.07;;;24.03;;
35743;SDS011;21867;52.012;4.324;2023-02-21T10:44:54;34.20;;;22.87;;
35743;SDS011;21867;52.012;4.324;2023-02-21T10:47:24;26.93;;;20.23;;
35743;SDS011;21867;52.012;4.324;2023-02-21T10:52:22;29.97;;;21.53;;
35743;SDS011;21867;52.012;4.324;2023-02-21T10:54:58;29.47;;;20.40;;
35743;SDS011;21867;52.012;4.324;2023-02-21T10:57:27;29.40;;;20.47;;
35743;SDS011;21867;52.012;4.324;2023-02-21T10:59:54;26.73;;;21.23;;
35743;SDS011;21867;52.012;4.324;2023-02-21T11:02:27;26.93;;;19.47;;
35743;SDS011;21867;52.012;4.324;2023-02-21T11:11:12;18.57;;;14.63;;
35743;SDS011;21867;52.012;4.324;2023-02-21T11:13:40;22.83;;;15.77;;
35743;SDS011;21867;52.012;4.324;2023-02-21T11:16:09;19.97;;;14.83;;
35743;SDS011;21867;52.012;4.324;2023-02-21T11:18:36;20.10;;;15.57;;
35743;SDS011;21867;52.012;4.324;2023-02-21T11:21:09;18.57;;;15.00;;
35743;SDS011;21867;52.012;4.324;2023-02-21T11:26:21;16.37;;;13.60;;
35743;SDS011;21867;52.012;4.324;2023-02-21T11:28:49;18.37;;;14.40;;
35743;SDS011;21867;52.012;4.324;2023-02-21T11:31:20;15.40;;;13.00;;
35743;SDS011;21867;52.012;4.324;2023-02-21T11:40:24;17.10;;;13.60;;
35743;SDS011;21867;52.012;4.324;2023-02-21T11:45:35;16.63;;;13.43;;
35743;SDS011;21867;52.012;4.324;2023-02-21T11:48:04;17.80;;;14.30;;
35743;SDS011;21867;52.012;4.324;2023-02-21T11:50:33;15.03;;;13.13;;
35743;SDS011;21867;52.012;4.324;2023-02-21T11:55:40;16.60;;;12.33;;
35743;SDS011;21867;52.012;4.324;2023-02-21T11:58:10;15.33;;;12.57;;
35743;SDS011;21867;52.012;4.324;2023-02-21T12:00:45;14.37;;;11.60;;
35743;SDS011;21867;52.012;4.324;2023-02-21T12:03:20;14.70;;;12.33;;
35743;SDS011;21867;52.012;4.324;2023-02-21T12:05:52;15.83;;;12.40;;
35743;SDS011;21867;52.012;4.324;2023-02-21T12:18:21;18.50;;;15.30;;
35743;SDS011;21867;52.012;4.324;2023-02-21T12:21:02;18.00;;;14.13;;
35743;SDS011;21867;52.012;4.324;2023-02-21T12:23:32;20.03;;;15.47;;
35743;SDS011;21867;52.012;4.324;2023-02-21T12:26:09;21.60;;;14.83;;
35743;SDS011;21867;52.012;4.324;2023-02-21T12:31:52;21.07;;;14.50;;
35743;SDS011;21867;52.012;4.324;2023-02-21T12:34:27;18.50;;;14.43;;
35743;SDS011;21867;52.012;4.324;2023-02-21T12:37:00;19.30;;;14.37;;
35743;SDS011;21867;52.012;4.324;2023-02-21T12:45:52;18.93;;;13.40;;
35743;SDS011;21867;52.012;4.324;2023-02-21T12:48:24;15.50;;;11.87;;
35743;SDS011;21867;52.012;4.324;2023-02-21T12:50:55;17.27;;;12.47;;
35743;SDS011;21867;52.012;4.324;2023-02-21T12:53:25;15.63;;;11.67;;
35743;SDS011;21867;52.012;4.324;2023-02-21T12:55:57;18.07;;;12.90;;
35743;SDS011;21867;52.012;4.324;2023-02-21T12:58:27;14.93;;;13.03;;
35743;SDS011;21867;52.012;4.324;2023-02-21T13:00:56;14.93;;;11.40;;
35743;SDS011;21867;52.012;4.324;2023-02-21T13:03:30;13.93;;;9.17;;
35743;SDS011;21867;52.012;4.324;2023-02-21T13:06:01;14.90;;;11.50;;
35743;SDS011;21867;52.012;4.324;2023-02-21T13:08:31;14.80;;;10.73;;
35743;SDS011;21867;52.012;4.324;2023-02-21T13:11:03;14.53;;;10.47;;
35743;SDS011;21867;52.012;4.324;2023-02-21T13:13:33;14.73;;;10.70;;
35743;SDS011;21867;52.012;4.324;2023-02-21T13:16:01;14.50;;;9.93;;
35743;SDS011;21867;52.012;4.324;2023-02-21T13:18:30;12.23;;;9.43;;
35743;SDS011;21867;52.012;4.324;2023-02-21T13:21:03;13.73;;;10.37;;
35743;SDS011;21867;52.012;4.324;2023-02-21T13:26:29;12.87;;;8.63;;
35743;SDS011;21867;52.012;4.324;2023-02-21T13:28:58;10.07;;;7.93;;
35743;SDS011;21867;52.012;4.324;2023-02-21T13:31:38;12.17;;;8.90;;
35743;SDS011;21867;52.012;4.324;2023-02-21T13:34:08;10.63;;;8.47;;
35743;SDS011;21867;52.012;4.324;2023-02-21T13:36:40;8.63;;;7.57;;
35743;SDS011;21867;52.012;4.324;2023-02-21T13:39:10;10.30;;;9.00;;
35743;SDS011;21867;52.012;4.324;2023-02-21T13:41:39;11.83;;;8.10;;
35743;SDS011;21867;52.012;4.324;2023-02-21T13:44:09;7.90;;;7.20;;
35743;SDS011;21867;52.012;4.324;2023-02-21T13:46:59;8.77;;;7.30;;
35743;SDS011;21867;52.012;4.324;2023-02-21T13:52:24;10.83;;;8.20;;
35743;SDS011;21867;52.012;4.324;2023-02-21T13:57:38;10.23;;;7.53;;
35743;SDS011;21867;52.012;4.324;2023-02-21T14:03:01;10.00;;;8.80;;
35743;SDS011;21867;52.012;4.324;2023-02-21T14:06:14;15.50;;;10.97;;
35743;SDS011;21867;52.012;4.324;2023-02-21T14:08:20;16.53;;;12.43;;
35743;SDS011;21867;52.012;4.324;2023-02-21T14:10:52;22.73;;;16.00;;
35743;SDS011;21867;52.012;4.324;2023-02-21T14:13:21;22.23;;;17.97;;
35743;SDS011;21867;52.012;4.324;2023-02-21T14:15:50;22.33;;;16.70;;
35743;SDS011;21867;52.012;4.324;2023-02-21T14:18:24;25.87;;;15.90;;
35743;SDS011;21867;52.012;4.324;2023-02-21T14:20:53;19.50;;;14.50;;
35743;SDS011;21867;52.012;4.324;2023-02-21T14:23:24;23.23;;;16.30;;
35743;SDS011;21867;52.012;4.324;2023-02-21T14:25:58;22.07;;;16.53;;
35743;SDS011;21867;52.012;4.324;2023-02-21T14:35:19;24.87;;;17.20;;
35743;SDS011;21867;52.012;4.324;2023-02-21T14:37:50;20.63;;;14.30;;
35743;SDS011;21867;52.012;4.324;2023-02-21T14:40:26;22.77;;;15.83;;
35743;SDS011;21867;52.012;4.324;2023-02-21T14:43:00;21.93;;;15.33;;
35743;SDS011;21867;52.012;4.324;2023-02-21T14:45:35;21.27;;;15.70;;
35743;SDS011;21867;52.012;4.324;2023-02-21T14:48:25;26.57;;;16.50;;
35743;SDS011;21867;52.012;4.324;2023-02-21T14:53:50;21.30;;;15.83;;
35743;SDS011;21867;52.012;4.324;2023-02-21T14:59:16;24.07;;;17.27;;
35743;SDS011;21867;52.012;4.324;2023-02-21T15:01:50;23.50;;;17.60;;
35743;SDS011;21867;52.012;4.324;2023-02-21T15:04:22;25.73;;;18.80;;
35743;SDS011;21867;52.012;4.324;2023-02-21T15:06:54;28.77;;;20.07;;
35743;SDS011;21867;52.012;4.324;2023-02-21T15:09:25;26.00;;;20.03;;
35743;SDS011;21867;52.012;4.324;2023-02-21T15:11:53;22.93;;;18.37;;
35743;SDS011;21867;52.012;4.324;2023-02-21T15:14:22;32.83;;;25.43;;
35743;SDS011;21867;52.012;4.324;2023-02-21T15:16:52;30.13;;;21.87;;
35743;SDS011;21867;52.012;4.324;2023-02-21T15:19:24;25.60;;;20.63;;
35743;SDS011;21867;52.012;4.324;2023-02-21T15:22:05;26.23;;;20.93;;
35743;SDS011;21867;52.012;4.324;2023-02-21T15:24:32;33.80;;;25.57;;
35743;SDS011;21867;52.012;4.324;2023-02-21T15:27:07;39.30;;;25.90;;
35743;SDS011;21867;52.012;4.324;2023-02-21T15:29:36;34.70;;;26.43;;
35743;SDS011;21867;52.012;4.324;2023-02-21T15:32:03;30.53;;;23.93;;
35743;SDS011;21867;52.012;4.324;2023-02-21T15:34:32;30.73;;;23.53;;
35743;SDS011;21867;52.012;4.324;2023-02-21T15:37:01;32.60;;;24.20;;
35743;SDS011;21867;52.012;4.324;2023-02-21T15:39:30;35.43;;;26.47;;
35743;SDS011;21867;52.012;4.324;2023-02-21T15:41:59;26.00;;;18.27;;
35743;SDS011;21867;52.012;4.324;2023-02-21T15:44:29;27.23;;;23.13;;
35743;SDS011;21867;52.012;4.324;2023-02-21T15:49:52;35.83;;;25.67;;
35743;SDS011;21867;52.012;4.324;2023-02-21T15:52:27;34.53;;;25.43;;
35743;SDS011;21867;52.012;4.324;2023-02-21T15:57:38;34.10;;;25.43;;
35743;SDS011;21867;52.012;4.324;2023-02-21T16:00:19;32.83;;;23.87;;
35743;SDS011;21867;52.012;4.324;2023-02-21T16:09:30;29.70;;;22.53;;
35743;SDS011;21867;52.012;4.324;2023-02-21T16:11:59;31.50;;;24.97;;
35743;SDS011;21867;52.012;4.324;2023-02-21T16:14:33;29.10;;;21.97;;
35743;SDS011;21867;52.012;4.324;2023-02-21T16:17:08;32.10;;;24.07;;
35743;SDS011;21867;52.012;4.324;2023-02-21T16:19:40;26.53;;;20.80;;
35743;SDS011;21867;52.012;4.324;2023-02-21T16:22:09;26.60;;;20.83;;
35743;SDS011;21867;52.012;4.324;2023-02-21T16:24:39;24.30;;;19.57;;
35743;SDS011;21867;52.012;4.324;2023-02-21T16:27:08;30.53;;;23.30;;
35743;SDS011;21867;52.012;4.324;2023-02-21T16:29:36;33.30;;;24.77;;
35743;SDS011;21867;52.012;4.324;2023-02-21T16:32:04;28.13;;;22.03;;
35743;SDS011;21867;52.012;4.324;2023-02-21T16:34:32;33.00;;;23.97;;
35743;SDS011;21867;52.012;4.324;2023-02-21T16:37:00;34.50;;;27.87;;
35743;SDS011;21867;52.012;4.324;2023-02-21T16:39:28;34.07;;;25.80;;
35743;SDS011;21867;52.012;4.324;2023-02-21T16:41:57;30.47;;;23.67;;
35743;SDS011;21867;52.012;4.324;2023-02-21T16:44:24;30.87;;;25.27;;
35743;SDS011;21867;52.012;4.324;2023-02-21T16:46:52;31.80;;;24.93;;
35743;SDS011;21867;52.012;4.324;2023-02-21T16:49:19;41.50;;;27.57;;
35743;SDS011;21867;52.012;4.324;2023-02-21T16:51:47;36.73;;;27.30;;
35743;SDS011;21867;52.012;4.324;2023-02-21T16:54:15;37.97;;;26.60;;
35743;SDS011;21867;52.012;4.324;2023-02-21T16:56:44;42.53;;;28.50;;
35743;SDS011;21867;52.012;4.324;2023-02-21T16:59:14;37.27;;;27.73;;
35743;SDS011;21867;52.012;4.324;2023-02-21T17:01:42;32.43;;;24.47;;
35743;SDS011;21867;52.012;4.324;2023-02-21T17:04:13;28.13;;;22.50;;
35743;SDS011;21867;52.012;4.324;2023-02-21T17:06:41;21.83;;;17.07;;
35743;SDS011;21867;52.012;4.324;2023-02-21T17:09:10;26.93;;;20.93;;
35743;SDS011;21867;52.012;4.324;2023-02-21T17:11:43;35.30;;;26.13;;
35743;SDS011;21867;52.012;4.324;2023-02-21T17:14:10;39.67;;;29.20;;
35743;SDS011;21867;52.012;4.324;2023-02-21T17:16:39;40.37;;;28.90;;
35743;SDS011;21867;52.012;4.324;2023-02-21T17:19:25;43.77;;;29.87;;
35743;SDS011;21867;52.012;4.324;2023-02-21T17:24:34;41.77;;;27.90;;
35743;SDS011;21867;52.012;4.324;2023-02-21T17:27:02;38.60;;;25.63;;
35743;SDS011;21867;52.012;4.324;2023-02-21T17:29:29;39.60;;;28.13;;
35743;SDS011;21867;52.012;4.324;2023-02-21T17:31:58;38.07;;;26.93;;
35743;SDS011;21867;52.012;4.324;2023-02-21T17:34:25;32.63;;;24.37;;
35743;SDS011;21867;52.012;4.324;2023-02-21T17:43:37;38.20;;;25.43;;
35743;SDS011;21867;52.012;4.324;2023-02-21T17:46:07;36.97;;;25.13;;
35743;SDS011;21867;52.012;4.324;2023-02-21T17:48:36;33.37;;;24.13;;
35743;SDS011;21867;52.012;4.324;2023-02-21T17:51:04;28.63;;;20.30;;
35743;SDS011;21867;52.012;4.324;2023-02-21T17:53:31;35.47;;;25.50;;
35743;SDS011;21867;52.012;4.324;2023-02-21T17:55:59;36.83;;;27.27;;
35743;SDS011;21867;52.012;4.324;2023-02-21T17:58:27;34.47;;;25.13;;
35743;SDS011;21867;52.012;4.324;2023-02-21T18:00:55;30.23;;;21.97;;
35743;SDS011;21867;52.012;4.324;2023-02-21T18:03:22;31.63;;;23.37;;
35743;SDS011;21867;52.012;4.324;2023-02-21T18:05:51;32.27;;;23.53;;
35743;SDS011;21867;52.012;4.324;2023-02-21T18:08:18;33.17;;;24.77;;
35743;SDS011;21867;52.012;4.324;2023-02-21T18:10:46;27.33;;;18.83;;
35743;SDS011;21867;52.012;4.324;2023-02-21T18:13:14;29.23;;;21.67;;
35743;SDS011;21867;52.012;4.324;2023-02-21T18:15:45;29.60;;;21.10;;
35743;SDS011;21867;52.012;4.324;2023-02-21T18:18:13;28.50;;;19.97;;
35743;SDS011;21867;52.012;4.324;2023-02-21T18:20:40;30.77;;;22.20;;
35743;SDS011;21867;52.012;4.324;2023-02-21T18:23:08;30.83;;;21.17;;